Zim Istanbul — A8UB3 — position and weather

sailwx.info

Track history (hours):
 
Tides and Currents Weather Stations Pressure Air Temp Water Temp Dewpoint Dewpoint Depression Visibility Wind Speed Wind Dir Waves Ship Positions

Zim Istanbul

Last reported at 2017-Dec-15 12:00 UTC. Time now 2017-Dec-16 01:43 UTC.
Position N 39°00' W 021°06'.

Length 262 m; draft 11.2 m.

Type: Ship (hazmat cat B). MMSI: 636014530.

Wind from 310 at 18 knots

Barometer 1027.5 mb
Air temperature 19.0 ° C
Visibility: greater than 5.4 NM
Dewpoint 15.9 ° C
Water temperature 20.0 ° C

Date/timePositionNaut miles runAvg speedWind from/ knotsBaromVisibWave heightAir tempDewpointWater temp
2017-Dec-15 12:00N 39°00' W 021°06'5413.6 310 / 181027.5 5.4 19.015.920.0
2017-Dec-15 08:00N 38°42' W 022°12'6915.7 310 / 181027.510.8 19.015.920.0
2017-Dec-15 03:35N 38°55' W 023°40'1714.6
2017-Dec-15 02:27N 38°57' W 024°01'2114.6
2017-Dec-15 01:00N 38°60' W 024°27'814.6
2017-Dec-15 00:27N 39°01' W 024°38'2215.1
2017-Dec-14 23:00N 39°00' W 025°06'6614.7 290 / 161030.0 5.4 19.014.220.0
2017-Dec-14 18:29N 39°12' W 026°30'714.6
2017-Dec-14 17:59N 39°12' W 026°39'714.8
2017-Dec-14 17:30N 39°13' W 026°48'815.0
2017-Dec-14 16:58N 39°14' W 026°59'714.8
2017-Dec-14 16:30N 39°15' W 027°08'714.7
2017-Dec-14 16:00N 39°15' W 027°17'1515.0
2017-Dec-14 15:00N 39°17' W 027°36'815.2
2017-Dec-14 14:30N 39°18' W 027°46'815.1
2017-Dec-14 14:00N 39°18' W 027°56'714.9
2017-Dec-14 13:30N 39°19' W 028°05'715.0
2017-Dec-14 13:00N 39°18' W 028°15'714.9
2017-Dec-14 12:30N 39°18' W 028°25'714.7
2017-Dec-14 12:00N 39°17' W 028°34'714.8
2017-Dec-14 11:30N 39°17' W 028°44'816.0
2017-Dec-14 11:00N 39°16' W 028°54'1020.8
2017-Dec-14 10:30N 39°16' W 029°07'1020.4
2017-Dec-14 10:00N 39°15' W 029°21'815.5
2017-Dec-14 09:30N 39°15' W 029°31'815.1
2017-Dec-14 09:00N 39°15' W 029°40'715.0
2017-Dec-14 08:31N 39°14' W 029°50'815.0
2017-Dec-14 08:00N 39°14' W 029°60'5324.7
2017-Dec-14 08:00N 39°12' W 029°54'1224.6 240 / 171031.3 2.2 18.014.819.5
2017-Dec-14 07:30N 39°13' W 030°09'815.0
2017-Dec-14 07:00N 39°13' W 030°19'714.8
2017-Dec-14 06:30N 39°12' W 030°29'714.8
2017-Dec-14 06:00N 39°12' W 030°38'1814.8
2017-Dec-14 04:46N 39°11' W 031°02'415.1
2017-Dec-14 04:29N 39°11' W 031°07'815.1
2017-Dec-14 03:58N 39°10' W 031°17'814.9
2017-Dec-14 03:26N 39°10' W 031°28'614.7
2017-Dec-14 03:00N 39°11' W 031°36'1714.7
2017-Dec-14 01:49N 39°11' W 031°58'1314.7
2017-Dec-14 00:56N 39°11' W 032°15'1014.7
2017-Dec-14 00:17N 39°12' W 032°27'914.8
2017-Dec-13 23:41N 39°12' W 032°39'614.8
2017-Dec-13 23:16N 39°12' W 032°47'514.9
2017-Dec-13 22:56N 39°12' W 032°53'23814.9
2017-Dec-13 07:00N 39°06' W 038°00'39015.6 200 / 181028.010.8 19.014.220.5
2017-Dec-12 06:00N 38°30' W 046°18'62714.9 180 / 201022.8 5.4 21.018.023.0
2017-Dec-10 12:00N 36°24' W 059°12'2713.5 180 / 321018.0 5.4 22.020.624.0
2017-Dec-10 10:00N 36°12' W 059°42'5012.5 190 / 331018.0 5.4 23.019.324.5
2017-Dec-10 06:00N 36°00' W 060°42'36715.3 200 / 361018.5 5.4 23.020.124.0
2017-Dec-09 06:00N 34°06' W 067°48'3216.1 200 / 321016.5 5.4 23.020.124.0
2017-Dec-09 04:00N 33°54' W 068°24'27415.2 200 / 311016.0 5.4 24.021.124.0
2017-Dec-08 10:00N 32°06' W 073°24'6215.6 200 / 151015.5 5.4 22.518.824.0
2017-Dec-08 06:00N 31°54' W 074°36'23914.1 060 / 101015.5 5.4 22.019.023.0
2017-Dec-07 13:00N 31°54' W 079°18'2512.7 020 / 291019.0 5.4 18.0
2017-Dec-07 11:00N 31°54' W 079°48'3815.6 010 / 311020.0 5.4 18.514.520.0
2017-Dec-07 08:34N 31°56' W 080°32'210.0
2017-Dec-07 08:25N 31°56' W 080°34'4 9.8
2017-Dec-07 08:00N 31°57' W 080°39'5 9.3
2017-Dec-07 07:26N 31°59' W 080°45'615.0
2017-Dec-07 07:00N 32°02' W 080°51'612.0
2017-Dec-07 06:30N 32°04' W 080°58'4 8.9
2017-Dec-07 06:01N 32°05' W 081°03'3 5.9
2017-Dec-07 05:30N 32°06' W 081°06'2 4.8
2017-Dec-07 05:00N 32°07' W 081°08'0 0.1
2017-Dec-07 04:19N 32°07' W 081°08'0 0.0
2017-Dec-07 03:55N 32°07' W 081°08'0 0.0
2017-Dec-07 03:25N 32°07' W 081°08'0 0.0
2017-Dec-07 02:55N 32°07' W 081°08'0 0.0
2017-Dec-07 02:25N 32°07' W 081°08'0 0.0
2017-Dec-07 01:55N 32°07' W 081°08'0 0.0
2017-Dec-07 01:25N 32°07' W 081°08'0 0.0
2017-Dec-07 00:55N 32°07' W 081°08'0 0.0
2017-Dec-07 00:25N 32°07' W 081°08'0 0.0
2017-Dec-06 23:49N 32°07' W 081°08'0 0.0
2017-Dec-06 23:25N 32°07' W 081°08'0 0.0
2017-Dec-06 22:55N 32°07' W 081°08'0 0.0
2017-Dec-06 22:13N 32°07' W 081°08'0 0.0
2017-Dec-06 21:13N 32°07' W 081°08'0 0.0
2017-Dec-06 20:55N 32°07' W 081°08'  
Track history (hours):
 
Tides and Currents Weather Stations Pressure Air Temp Water Temp Dewpoint Dewpoint Depression Visibility Wind Speed Wind Dir Waves Ship Positions

Zim Istanbul

Last reported at 2017-Dec-15 12:00 UTC. Time now 2017-Dec-16 01:43 UTC.
Position N 39°00' W 021°06'.

Length 262 m; draft 11.2 m.

Type: Ship (hazmat cat B). MMSI: 636014530.

Wind from 310 at 18 knots

Barometer 1027.5 mb
Air temperature 19.0 ° C
Visibility: greater than 5.4 NM
Dewpoint 15.9 ° C
Water temperature 20.0 ° C

Date/timePositionNaut miles runAvg speedWind from/ knotsBaromVisibWave heightAir tempDewpointWater temp
2017-Dec-15 12:00N 39°00' W 021°06'5413.6 310 / 181027.5 5.4 19.015.920.0
2017-Dec-15 08:00N 38°42' W 022°12'6915.7 310 / 181027.510.8 19.015.920.0
2017-Dec-15 03:35N 38°55' W 023°40'1714.6
2017-Dec-15 02:27N 38°57' W 024°01'2114.6
2017-Dec-15 01:00N 38°60' W 024°27'814.6
2017-Dec-15 00:27N 39°01' W 024°38'2215.1
2017-Dec-14 23:00N 39°00' W 025°06'6614.7 290 / 161030.0 5.4 19.014.220.0
2017-Dec-14 18:29N 39°12' W 026°30'714.6
2017-Dec-14 17:59N 39°12' W 026°39'714.8
2017-Dec-14 17:30N 39°13' W 026°48'815.0
2017-Dec-14 16:58N 39°14' W 026°59'714.8
2017-Dec-14 16:30N 39°15' W 027°08'714.7
2017-Dec-14 16:00N 39°15' W 027°17'1515.0
2017-Dec-14 15:00N 39°17' W 027°36'815.2
2017-Dec-14 14:30N 39°18' W 027°46'815.1
2017-Dec-14 14:00N 39°18' W 027°56'714.9
2017-Dec-14 13:30N 39°19' W 028°05'715.0
2017-Dec-14 13:00N 39°18' W 028°15'714.9
2017-Dec-14 12:30N 39°18' W 028°25'714.7
2017-Dec-14 12:00N 39°17' W 028°34'714.8
2017-Dec-14 11:30N 39°17' W 028°44'816.0
2017-Dec-14 11:00N 39°16' W 028°54'1020.8
2017-Dec-14 10:30N 39°16' W 029°07'1020.4
2017-Dec-14 10:00N 39°15' W 029°21'815.5
2017-Dec-14 09:30N 39°15' W 029°31'815.1
2017-Dec-14 09:00N 39°15' W 029°40'715.0
2017-Dec-14 08:31N 39°14' W 029°50'815.0
2017-Dec-14 08:00N 39°14' W 029°60'5324.7
2017-Dec-14 08:00N 39°12' W 029°54'1224.6 240 / 171031.3 2.2 18.014.819.5
2017-Dec-14 07:30N 39°13' W 030°09'815.0
2017-Dec-14 07:00N 39°13' W 030°19'714.8
2017-Dec-14 06:30N 39°12' W 030°29'714.8
2017-Dec-14 06:00N 39°12' W 030°38'1814.8
2017-Dec-14 04:46N 39°11' W 031°02'415.1
2017-Dec-14 04:29N 39°11' W 031°07'815.1
2017-Dec-14 03:58N 39°10' W 031°17'814.9
2017-Dec-14 03:26N 39°10' W 031°28'614.7
2017-Dec-14 03:00N 39°11' W 031°36'1714.7
2017-Dec-14 01:49N 39°11' W 031°58'1314.7
2017-Dec-14 00:56N 39°11' W 032°15'1014.7
2017-Dec-14 00:17N 39°12' W 032°27'914.8
2017-Dec-13 23:41N 39°12' W 032°39'614.8
2017-Dec-13 23:16N 39°12' W 032°47'514.9
2017-Dec-13 22:56N 39°12' W 032°53'23814.9
2017-Dec-13 07:00N 39°06' W 038°00'39015.6 200 / 181028.010.8 19.014.220.5
2017-Dec-12 06:00N 38°30' W 046°18'62714.9 180 / 201022.8 5.4 21.018.023.0
2017-Dec-10 12:00N 36°24' W 059°12'2713.5 180 / 321018.0 5.4 22.020.624.0
2017-Dec-10 10:00N 36°12' W 059°42'5012.5 190 / 331018.0 5.4 23.019.324.5
2017-Dec-10 06:00N 36°00' W 060°42'36715.3 200 / 361018.5 5.4 23.020.124.0
2017-Dec-09 06:00N 34°06' W 067°48'3216.1 200 / 321016.5 5.4 23.020.124.0
2017-Dec-09 04:00N 33°54' W 068°24'27415.2 200 / 311016.0 5.4 24.021.124.0
2017-Dec-08 10:00N 32°06' W 073°24'6215.6 200 / 151015.5 5.4 22.518.824.0
2017-Dec-08 06:00N 31°54' W 074°36'23914.1 060 / 101015.5 5.4 22.019.023.0
2017-Dec-07 13:00N 31°54' W 079°18'2512.7 020 / 291019.0 5.4 18.0
2017-Dec-07 11:00N 31°54' W 079°48'3815.6 010 / 311020.0 5.4 18.514.520.0
2017-Dec-07 08:34N 31°56' W 080°32'210.0
2017-Dec-07 08:25N 31°56' W 080°34'4 9.8
2017-Dec-07 08:00N 31°57' W 080°39'5 9.3
2017-Dec-07 07:26N 31°59' W 080°45'615.0
2017-Dec-07 07:00N 32°02' W 080°51'612.0
2017-Dec-07 06:30N 32°04' W 080°58'4 8.9
2017-Dec-07 06:01N 32°05' W 081°03'3 5.9
2017-Dec-07 05:30N 32°06' W 081°06'2 4.8
2017-Dec-07 05:00N 32°07' W 081°08'0 0.1
2017-Dec-07 04:19N 32°07' W 081°08'0 0.0
2017-Dec-07 03:55N 32°07' W 081°08'0 0.0
2017-Dec-07 03:25N 32°07' W 081°08'0 0.0
2017-Dec-07 02:55N 32°07' W 081°08'0 0.0
2017-Dec-07 02:25N 32°07' W 081°08'0 0.0
2017-Dec-07 01:55N 32°07' W 081°08'0 0.0
2017-Dec-07 01:25N 32°07' W 081°08'0 0.0
2017-Dec-07 00:55N 32°07' W 081°08'0 0.0
2017-Dec-07 00:25N 32°07' W 081°08'0 0.0
2017-Dec-06 23:49N 32°07' W 081°08'0 0.0
2017-Dec-06 23:25N 32°07' W 081°08'0 0.0
2017-Dec-06 22:55N 32°07' W 081°08'0 0.0
2017-Dec-06 22:13N 32°07' W 081°08'0 0.0
2017-Dec-06 21:13N 32°07' W 081°08'0 0.0
2017-Dec-06 20:55N 32°07' W 081°08'  

Dump ship's entire track history